< Typhoon 199423 1994 Season Typhoon 199425 >
Typhoon 199424 (MELISSA)
General InformationTrack Information on Google MapsDetailed Wind InformationList of All Images || Disaster Info.ResourceGoogle EarthGE AnimationAtom FeedGeoJSON
Detalied Best Track (Time Zone = UTC)
Year Month Day Hour Lat. Long. Pressure (hPa) Wind (kt) Class Image Chart
1994 9 11 06 9.5 161.0 1002 0 2 Image Chart
1994 9 11 12 10.0 159.5 1000 0 2 Image Chart
1994 9 11 18 10.6 158.6 998 35 3 Image Chart
1994 9 12 00 11.4 157.8 998 35 3 Image Chart
1994 9 12 06 11.9 157.3 996 40 3 Image Chart
1994 9 12 12 12.3 156.9 992 45 3 Image Chart
1994 9 12 18 12.7 156.9 990 45 3 Image Chart
1994 9 13 00 13.1 157.2 985 50 4 Image Chart
1994 9 13 06 13.5 157.6 980 55 4 Image Chart
1994 9 13 12 14.0 158.0 975 60 4 Image Chart
1994 9 13 18 14.5 158.4 970 65 5 Image Chart
1994 9 14 00 15.0 158.8 965 70 5 Image Chart
1994 9 14 06 15.4 159.1 960 75 5 Image Chart
1994 9 14 12 15.9 159.5 950 80 5 Image Chart
1994 9 14 18 16.9 159.9 945 85 5 Image Chart
1994 9 15 00 18.0 159.9 935 90 5 Image Chart
1994 9 15 06 19.0 159.7 930 90 5 Image Chart
1994 9 15 12 20.2 159.5 920 100 5 Image Chart
1994 9 15 18 21.5 159.1 915 100 5 Image Chart
1994 9 16 00 22.8 158.4 910 110 5 Image Chart
1994 9 16 06 24.2 157.7 910 110 5 Image Chart
1994 9 16 12 25.5 156.9 920 105 5 Image Chart
1994 9 16 18 27.0 156.1 925 100 5 Image Chart
1994 9 17 00 28.7 155.1 935 90 5 Image Chart
1994 9 17 06 30.0 153.7 940 80 5 Image Chart
1994 9 17 12 31.6 152.8 945 75 5 Image Chart
1994 9 17 18 33.2 151.8 950 70 5 Image Chart
1994 9 18 00 35.0 150.1 955 70 5 Image Chart
1994 9 18 06 36.5 149.4 960 65 5 Image Chart
1994 9 18 12 38.1 149.0 965 65 5 Image Chart
1994 9 18 18 39.3 148.7 970 60 4 Image Chart
1994 9 19 00 40.3 148.5 970 60 4 Image Chart
1994 9 19 06 41.3 148.6 975 60 4 Image Chart
1994 9 19 12 42.0 149.1 980 55 4 Image Chart
1994 9 19 18 42.5 149.5 982 0 6 Image Chart
1994 9 20 00 43.0 150.0 984 0 6 Image Chart
1994 9 20 06 43.2 150.5 988 0 6 Image Chart
1994 9 20 12 43.2 151.2 992 0 6 Image Chart
1994 9 20 18 43.0 152.0 994 0 6 Image Chart
1994 9 21 00 42.8 152.5 996 0 6 Image Chart
1994 9 21 06 42.5 153.2 996 0 6 Image Chart
1994 9 21 12 41.5 154.5 996 0 6 Image Chart
1994 9 21 18 40.5 156.0 998 0 6 Image Chart
Japan Meteorological Agency Best Track Data | Correction Date : 1995-01-30
< Typhoon 199423 1994 Season Typhoon 199425 >

Help